Georgetown, Delaware
Current Conditions -  °F | °C
As of 1:54 AM on Friday 19 Dec 2014 (Local Time) from KGED Reporting Station
Overcast Overcast  
Wind Chill:   Ceiling: 11000
Heat Index:   Visibility: 10mi
Dew Point: -4°   Wind: 3mph
Humidity: 67%   Direction: 270°W
Pressure: 30.08"   Gusts: NA
Location:  38.69°N, 75.39°W
Report Text: KGED 190654Z AUTO 27003KT 10SM OVC110 02/M04 A3008 RMK AO2 SLP186 T00171039
Loading
Personal Weather Stations






























Interactive Weather Map New forecast layout! Learn more

10-Day Weather Forecast

Advertisements
Track Severe Weather on mobile